createdAt,value
2018-12-22T00:01:03.655Z,70.00
2018-12-22T00:06:07.092Z,72.20
2018-12-22T00:11:13.443Z,73.30
2018-12-22T00:16:16.588Z,72.20
2018-12-22T00:21:19.716Z,71.60
2018-12-22T00:26:22.916Z,70.80
2018-12-22T00:31:26.064Z,71.50
2018-12-22T00:36:29.154Z,71.50
2018-12-22T00:41:32.315Z,71.60
2018-12-22T00:46:36.134Z,71.70
2018-12-22T00:51:39.278Z,72.20
2018-12-22T00:56:42.429Z,72.40
2018-12-22T01:01:45.563Z,74.50
2018-12-22T01:06:48.697Z,75.30
2018-12-22T01:11:51.856Z,76.30
2018-12-22T01:16:54.993Z,77.00
2018-12-22T01:21:58.228Z,77.30
2018-12-22T01:27:01.514Z,77.60
2018-12-22T01:32:04.649Z,77.10
2018-12-22T01:37:08.273Z,76.10
2018-12-22T01:42:11.410Z,74.80
2018-12-22T01:47:14.600Z,74.20
2018-12-22T01:52:17.794Z,73.80
2018-12-22T01:57:21.966Z,72.50
2018-12-22T02:02:26.118Z,72.90
2018-12-22T02:07:29.439Z,72.00
2018-12-22T02:12:32.562Z,71.50
2018-12-22T02:17:35.688Z,69.20
2018-12-22T02:22:38.814Z,68.00
2018-12-22T02:27:41.894Z,67.30
2018-12-22T02:32:45.050Z,65.40
2018-12-22T02:37:48.306Z,65.60
2018-12-22T02:42:51.540Z,65.90
2018-12-22T02:47:54.886Z,67.60
2018-12-22T02:52:58.151Z,65.70
2018-12-22T02:58:01.390Z,65.10
2018-12-22T03:03:04.551Z,65.00
2018-12-22T03:08:07.833Z,64.90
2018-12-22T03:13:11.026Z,63.50
2018-12-22T03:18:14.160Z,64.10
2018-12-22T03:23:17.284Z,64.60
2018-12-22T03:28:20.393Z,64.10
2018-12-22T03:33:23.539Z,65.80
2018-12-22T03:38:26.673Z,65.80
2018-12-22T03:43:29.804Z,66.00
2018-12-22T03:48:32.916Z,67.90
2018-12-22T03:53:35.987Z,71.70
2018-12-22T03:58:39.113Z,73.00
2018-12-22T04:03:42.259Z,75.10
2018-12-22T04:08:45.370Z,75.80
2018-12-22T04:13:48.565Z,77.20
2018-12-22T04:18:51.684Z,77.80
2018-12-22T04:23:54.838Z,78.90
2018-12-22T04:28:57.977Z,79.50
2018-12-22T04:34:01.098Z,80.50
2018-12-22T04:39:06.715Z,81.20
2018-12-22T04:44:09.834Z,82.10
2018-12-22T04:49:12.993Z,83.50
2018-12-22T04:54:16.190Z,83.60
2018-12-22T04:59:19.292Z,85.10
2018-12-22T05:04:22.445Z,85.20
2018-12-22T05:09:25.602Z,86.30
2018-12-22T05:14:28.698Z,88.00
2018-12-22T05:19:31.859Z,89.00
2018-12-22T05:24:35.105Z,89.00
2018-12-22T05:29:38.180Z,89.50
2018-12-22T05:34:41.311Z,89.80
2018-12-22T05:39:44.423Z,88.40
2018-12-22T05:44:47.562Z,88.50
2018-12-22T05:49:50.620Z,89.00
2018-12-22T05:54:53.774Z,89.10
2018-12-22T06:00:00.673Z,89.80
2018-12-22T06:05:02.222Z,90.30
2018-12-22T06:10:05.477Z,91.70
2018-12-22T06:15:08.622Z,92.40
2018-12-22T06:20:11.784Z,92.60
2018-12-22T06:25:14.941Z,93.30
2018-12-22T06:30:17.998Z,93.70
2018-12-22T06:35:21.144Z,93.90
2018-12-22T06:40:24.243Z,94.00
2018-12-22T06:45:27.383Z,94.20
2018-12-22T06:50:30.540Z,94.30
2018-12-22T06:55:33.677Z,94.90
2018-12-22T07:00:36.842Z,94.90
2018-12-22T07:05:39.956Z,94.50
2018-12-22T07:10:43.183Z,94.40
2018-12-22T07:15:46.316Z,94.60
2018-12-22T07:20:49.696Z,94.70
2018-12-22T07:25:52.821Z,94.80
2018-12-22T07:30:55.925Z,94.90
2018-12-22T07:35:59.053Z,95.00
2018-12-22T07:41:02.297Z,94.20
2018-12-22T07:46:05.418Z,93.90
2018-12-22T07:51:08.604Z,93.90
2018-12-22T07:56:11.764Z,92.90
2018-12-22T08:01:14.911Z,93.00
2018-12-22T08:06:18.128Z,92.70
2018-12-22T08:11:21.300Z,92.80
2018-12-22T08:16:24.419Z,92.90
2018-12-22T08:21:27.588Z,92.70
2018-12-22T08:26:30.724Z,92.40
2018-12-22T08:31:33.811Z,91.70
2018-12-22T08:36:37.039Z,91.30
2018-12-22T08:41:40.181Z,91.10
2018-12-22T08:46:43.291Z,91.30
2018-12-22T08:51:46.434Z,91.30
2018-12-22T08:56:49.548Z,92.30
2018-12-22T09:01:52.656Z,92.20
2018-12-22T09:06:55.784Z,93.00
2018-12-22T09:11:58.975Z,92.60
2018-12-22T09:17:02.135Z,93.00
2018-12-22T09:22:05.336Z,92.50
2018-12-22T09:27:08.540Z,93.10
2018-12-22T09:32:11.751Z,93.80
2018-12-22T09:37:14.914Z,93.40
2018-12-22T09:42:18.069Z,93.70
2018-12-22T09:47:21.369Z,93.50
2018-12-22T09:52:24.563Z,93.40
2018-12-22T09:57:27.752Z,93.20
2018-12-22T10:02:30.935Z,94.20
2018-12-22T10:07:34.060Z,93.20
2018-12-22T10:12:37.251Z,93.00
2018-12-22T10:17:40.558Z,93.20
2018-12-22T10:22:43.768Z,92.80
2018-12-22T10:27:46.972Z,92.70
2018-12-22T10:32:50.080Z,93.20
2018-12-22T10:37:53.231Z,93.20
2018-12-22T10:42:56.358Z,93.50
2018-12-22T10:47:59.472Z,93.70
2018-12-22T10:53:02.596Z,93.90
2018-12-22T10:58:06.075Z,94.30
2018-12-22T11:03:09.260Z,94.20
2018-12-22T11:08:12.431Z,93.90
2018-12-22T11:13:15.561Z,94.40
2018-12-22T11:18:18.752Z,94.50
2018-12-22T11:23:21.875Z,95.30
2018-12-22T11:28:25.001Z,93.20
2018-12-22T11:33:28.141Z,93.40
2018-12-22T11:38:31.380Z,92.90
2018-12-22T11:43:34.565Z,92.90
2018-12-22T11:48:44.400Z,92.30
2018-12-22T11:53:47.589Z,91.50
2018-12-22T11:58:50.756Z,91.80
2018-12-22T12:03:53.863Z,93.00
2018-12-22T12:08:56.980Z,95.00
2018-12-22T12:14:00.102Z,94.00
2018-12-22T12:19:13.139Z,93.70
2018-12-22T12:24:16.596Z,93.80
2018-12-22T12:29:19.747Z,94.40
2018-12-22T12:34:22.926Z,94.30
2018-12-22T12:39:26.062Z,93.80
2018-12-22T12:44:29.284Z,93.50
2018-12-22T12:49:32.457Z,93.70
2018-12-22T12:54:35.632Z,93.50
2018-12-22T12:59:38.754Z,93.60
2018-12-22T13:04:41.968Z,93.30
2018-12-22T13:09:45.626Z,93.60
2018-12-22T13:14:50.421Z,93.90
2018-12-22T13:19:53.532Z,94.50
2018-12-22T13:24:56.643Z,94.60
2018-12-22T13:29:59.834Z,94.60
2018-12-22T13:35:03.015Z,94.30
2018-12-22T13:40:07.960Z,93.90
2018-12-22T13:45:12.932Z,93.40
2018-12-22T13:50:16.594Z,93.10
2018-12-22T13:55:20.140Z,92.90
2018-12-22T14:00:23.261Z,93.00
2018-12-22T14:10:35.916Z,92.90
2018-12-22T14:15:49.755Z,92.90
2018-12-22T14:20:52.949Z,92.50
2018-12-22T14:25:56.084Z,93.20
2018-12-22T14:30:59.218Z,92.60
2018-12-22T14:36:06.179Z,92.10
2018-12-22T14:41:09.339Z,92.30
2018-12-22T14:46:12.476Z,92.50
2018-12-22T14:51:15.613Z,92.30
2018-12-22T14:56:20.061Z,92.30
2018-12-22T15:01:23.194Z,92.00
2018-12-22T15:06:26.346Z,92.00
2018-12-22T15:11:29.439Z,91.60
2018-12-22T15:16:32.603Z,91.80
2018-12-22T15:21:35.769Z,91.50
2018-12-22T15:26:38.893Z,91.70
2018-12-22T15:31:44.029Z,91.30
2018-12-22T15:36:47.255Z,91.30
2018-12-22T15:41:50.406Z,91.40
2018-12-22T15:46:53.508Z,91.40
2018-12-22T15:51:59.515Z,91.20
2018-12-22T15:57:03.640Z,91.20
2018-12-22T16:02:06.777Z,90.40
2018-12-22T16:07:10.087Z,90.90
2018-12-22T16:12:13.401Z,91.20
2018-12-22T16:17:16.702Z,91.00
2018-12-22T16:22:19.882Z,90.90
2018-12-22T16:27:23.028Z,91.80
2018-12-22T16:32:26.303Z,91.30
2018-12-22T16:37:29.512Z,91.60
2018-12-22T16:42:32.776Z,91.90
2018-12-22T16:47:35.894Z,92.00
2018-12-22T16:52:39.081Z,92.30
2018-12-22T16:57:46.515Z,93.20
2018-12-22T17:02:57.206Z,92.40
2018-12-22T17:08:00.348Z,92.60
2018-12-22T17:13:03.546Z,92.50
2018-12-22T17:18:07.033Z,92.50
2018-12-22T17:23:26.395Z,93.20
2018-12-22T17:28:30.659Z,93.40
2018-12-22T17:33:33.855Z,93.70
2018-12-22T17:38:37.032Z,95.40
2018-12-22T17:43:42.194Z,94.00
2018-12-22T17:48:45.298Z,93.70
2018-12-22T17:53:48.486Z,94.00
2018-12-22T17:58:51.624Z,93.70
2018-12-22T18:03:54.787Z,93.70
2018-12-22T18:08:57.951Z,93.80
2018-12-22T18:14:01.079Z,94.00
2018-12-22T18:19:04.222Z,94.30
2018-12-22T18:24:07.407Z,94.00
2018-12-22T18:29:10.544Z,94.60
2018-12-22T18:34:13.666Z,94.70
2018-12-22T18:39:16.814Z,95.20
2018-12-22T18:44:20.708Z,95.20
2018-12-22T18:49:24.799Z,95.40
2018-12-22T18:54:27.950Z,95.20
2018-12-22T18:59:31.160Z,96.40
2018-12-22T19:04:34.329Z,95.30
2018-12-22T19:09:39.176Z,95.60
2018-12-22T19:14:53.927Z,95.70
2018-12-22T19:19:57.101Z,94.80
2018-12-22T19:25:00.195Z,94.60
2018-12-22T19:30:03.350Z,95.30
2018-12-22T19:35:06.474Z,94.60
2018-12-22T19:40:09.643Z,95.00
2018-12-22T19:45:12.801Z,94.80
2018-12-22T19:50:16.101Z,94.50
2018-12-22T19:55:19.257Z,94.70
2018-12-22T20:00:22.556Z,94.50
2018-12-22T20:05:25.739Z,95.10
2018-12-22T20:10:28.868Z,94.30
2018-12-22T20:15:31.923Z,94.30
2018-12-22T20:20:35.052Z,94.50
2018-12-22T20:25:38.191Z,94.60
2018-12-22T20:30:41.335Z,93.90
2018-12-22T20:35:51.128Z,93.30
2018-12-22T20:40:54.258Z,93.10
2018-12-22T20:45:57.408Z,93.40
2018-12-22T20:51:00.729Z,93.00
2018-12-22T20:56:04.100Z,92.90
2018-12-22T21:01:07.243Z,93.00
2018-12-22T21:06:17.096Z,93.00
2018-12-22T21:11:20.253Z,92.70
2018-12-22T21:16:23.370Z,92.20
2018-12-22T21:21:26.535Z,91.60
2018-12-22T21:26:29.617Z,92.00
2018-12-22T21:31:32.842Z,91.60
2018-12-22T21:36:36.047Z,91.60
2018-12-22T21:41:39.222Z,91.00
2018-12-22T21:46:42.439Z,90.70
2018-12-22T21:51:49.159Z,90.80
2018-12-22T21:56:52.447Z,91.10
2018-12-22T22:01:55.597Z,92.00
2018-12-22T22:06:58.665Z,92.40
2018-12-22T22:12:01.810Z,92.60
2018-12-22T22:17:04.856Z,92.60
2018-12-22T22:22:07.931Z,92.10
2018-12-22T22:27:12.201Z,92.20
2018-12-22T22:32:15.390Z,91.30
2018-12-22T22:37:18.607Z,91.30
2018-12-22T22:42:21.747Z,91.10
2018-12-22T22:47:25.919Z,90.50
2018-12-22T22:52:29.083Z,90.20
2018-12-22T22:57:32.197Z,90.10
2018-12-22T23:02:35.292Z,89.60
2018-12-22T23:07:39.472Z,89.00
2018-12-22T23:12:44.700Z,88.30
2018-12-22T23:17:47.791Z,89.80
2018-12-22T23:22:51.716Z,88.50
2018-12-22T23:27:54.820Z,88.00
2018-12-22T23:32:57.981Z,88.80
2018-12-22T23:38:01.071Z,88.40
2018-12-22T23:43:04.267Z,87.90
2018-12-22T23:48:07.355Z,87.20
2018-12-22T23:53:10.450Z,86.50
2018-12-22T23:58:13.627Z,87.40
